Swift Ace — C6XB8 — position and weather

sailwx.info

Track history (hours):
 
Tides and Currents Weather Stations Pressure Air Temp Water Temp Dewpoint Dewpoint Depression Visibility Wind Speed Wind Dir Waves Ship Positions

Swift Ace

Last reported at 2017-Mar-23 01:32 UTC. Time now 2017-Mar-23 02:05 UTC.
Position N 51°19' E 003°13'.

Length 200 m; draft 8.6 m.

Type: Cargo ship. MMSI: 310968322.

Date/timePositionNaut miles runAvg speedWind from/ knotsBaromVisibWave heightAir tempDewpointWater temp
2017-Mar-23 01:32N 51°19' E 003°13'0 0.0
2017-Mar-23 00:32N 51°19' E 003°13'1 0.6
2017-Mar-22 23:33N 51°20' E 003°13'1 0.6
2017-Mar-22 22:33N 51°20' E 003°13'6 6.0
2017-Mar-22 21:34N 51°25' E 003°20'1111.2
2017-Mar-22 20:33N 51°26' E 003°37'1111.1
2017-Mar-22 19:33N 51°21' E 003°53'8 8.0
2017-Mar-22 18:32N 51°22' E 004°06'8 7.7
2017-Mar-22 17:33N 51°18' E 004°17'2 2.5
2017-Mar-22 16:33N 51°16' E 004°17'2 1.5
2017-Mar-22 15:34N 51°16' E 004°14'0 0.1
2017-Mar-22 14:33N 51°16' E 004°14'0 0.0
2017-Mar-22 13:33N 51°16' E 004°14'0 0.0
2017-Mar-22 12:33N 51°16' E 004°14'0 0.0
2017-Mar-22 11:33N 51°16' E 004°14'0 0.0
2017-Mar-22 10:33N 51°16' E 004°14'0 0.0
2017-Mar-22 09:33N 51°16' E 004°14'0 0.0
2017-Mar-22 08:33N 51°16' E 004°14'0 0.0
2017-Mar-22 07:33N 51°16' E 004°14'0 0.0
2017-Mar-22 06:33N 51°16' E 004°14'0 0.0
2017-Mar-22 05:33N 51°16' E 004°14'0 0.0
2017-Mar-22 04:33N 51°16' E 004°14'0 0.0
2017-Mar-22 03:33N 51°16' E 004°14'1 1.0
2017-Mar-22 02:34N 51°17' E 004°15'1 1.1
2017-Mar-22 01:33N 51°18' E 004°16'6 6.5
2017-Mar-22 00:33N 51°23' E 004°09'8 7.9
2017-Mar-21 23:33N 51°23' E 003°57'9 9.0
2017-Mar-21 22:33N 51°24' E 003°43'9 9.0
2017-Mar-21 21:34N 51°25' E 003°28'1514.8
2017-Mar-21 20:33N 51°24' E 003°04'1413.6
2017-Mar-21 19:33N 51°22' E 002°43'1010.2
2017-Mar-21 18:34N 51°21' E 002°27'1111.4
2017-Mar-21 17:34N 51°16' E 002°11'10 9.6
2017-Mar-21 16:34N 51°11' E 001°57'1312.8
2017-Mar-21 15:33N 51°04' E 001°41'1312.8
2017-Mar-21 14:33N 50°53' E 001°29'3711.9
2017-Mar-21 11:26N 50°27' E 000°47'1313.3
2017-Mar-21 10:28N 50°24' E 000°27'1213.3
2017-Mar-21 09:34N 50°21' E 000°09'1313.1
2017-Mar-21 08:33N 50°19' W 000°11'2912.5
2017-Mar-21 06:12N 50°22' W 000°57'812.2
2017-Mar-21 05:33N 50°24' W 001°09'1313.1
2017-Mar-21 04:33N 50°25' W 001°29'1414.0
2017-Mar-21 03:33N 50°25' W 001°51'1814.8
2017-Mar-21 02:20N 50°25' W 002°20'1215.2
2017-Mar-21 01:34N 50°25' W 002°38'1514.8
2017-Mar-21 00:33N 50°25' W 003°01'1414.3
2017-Mar-20 23:33N 50°24' W 003°24'1010.0
2017-Mar-20 22:33N 50°15' W 003°29'1514.6
2017-Mar-20 21:33N 50°00' W 003°32'6913.3
2017-Mar-20 16:24N 49°09' W 004°43'1415.6
2017-Mar-20 15:31N 49°02' W 005°01'1616.3
2017-Mar-20 14:34N 48°53' W 005°21'1615.9
2017-Mar-20 13:34N 48°42' W 005°38'58116.6
2017-Mar-19 02:32N 39°30' W 009°51'1616.2
2017-Mar-19 01:33N 39°14' W 009°51'1616.2
2017-Mar-19 00:33N 38°58' W 009°50'1616.2
2017-Mar-18 23:34N 38°42' W 009°50'1615.9
2017-Mar-18 22:34N 38°26' W 009°47'1616.3
2017-Mar-18 21:34N 38°10' W 009°43'1616.3
2017-Mar-18 20:34N 37°54' W 009°38'1616.1
2017-Mar-18 19:34N 37°39' W 009°33'1615.9
2017-Mar-18 18:34N 37°23' W 009°28'1616.1
2017-Mar-18 17:34N 37°08' W 009°24'1616.3
2017-Mar-18 16:33N 36°52' W 009°17'1716.5
2017-Mar-18 15:33N 36°43' W 008°60'1717.3
2017-Mar-18 14:34N 36°37' W 008°40'1817.7
2017-Mar-18 13:33N 36°31' W 008°19'1818.0
2017-Mar-18 12:33N 36°26' W 007°57'9217.7
2017-Mar-18 07:20N 35°58' W 006°08'1518.2
2017-Mar-18 06:32N 35°57' W 005°50'1717.3
2017-Mar-18 05:34N 35°59' W 005°30'1717.2
2017-Mar-18 04:34N 36°03' W 005°09'14217.7
2017-Mar-17 20:32N 36°26' W 002°16'7317.8
2017-Mar-17 16:26N 37°13' W 001°06'1617.7
2017-Mar-17 15:33N 37°23' W 000°51'1818.0
2017-Mar-17 14:33N 37°35' W 000°33'1817.7
2017-Mar-17 13:31N 37°50' W 000°20'9117.6
2017-Mar-17 08:22N 39°07' E 000°40'3918.7
2017-Mar-17 06:17N 39°42' E 001°03'1318.3
2017-Mar-17 05:33N 39°53' E 001°12'1818.1
2017-Mar-17 04:33N 40°09' E 001°23'1818.0
2017-Mar-17 03:34N 40°25' E 001°34'1817.9
2017-Mar-17 02:34N 40°41' E 001°45'1817.9
2017-Mar-17 01:33N 40°56' E 001°57'1817.8
2017-Mar-17 00:34N 41°12' E 002°08'8 8.1
2017-Mar-16 23:33N 41°20' E 002°09'0 0.1
2017-Mar-16 22:31N 41°20' E 002°09'0 0.0
2017-Mar-16 21:25N 41°20' E 002°09'0 0.0
2017-Mar-16 20:13N 41°20' E 002°09'0 0.0
2017-Mar-16 19:31N 41°20' E 002°09'0 0.0
2017-Mar-16 18:25N 41°20' E 002°09'0 0.0
2017-Mar-16 17:31N 41°20' E 002°09'0 0.0
2017-Mar-16 14:22N 41°20' E 002°09'0 0.0
2017-Mar-16 13:28N 41°20' E 002°09'0 0.0
2017-Mar-16 12:22N 41°20' E 002°09'0 0.0
2017-Mar-16 11:25N 41°20' E 002°09'0 0.0
2017-Mar-16 10:10N 41°20' E 002°09'0 0.0
2017-Mar-16 08:22N 41°20' E 002°09'0 0.0
2017-Mar-16 07:10N 41°20' E 002°09'0 0.0
2017-Mar-16 04:04N 41°20' E 002°09'0 0.0
2017-Mar-16 03:16N 41°20' E 002°09'0 0.0
2017-Mar-16 02:28N 41°20' E 002°09'0 0.0
2017-Mar-16 01:28N 41°20' E 002°09'0 0.0
2017-Mar-16 00:25N 41°20' E 002°09'2 2.4
2017-Mar-15 23:33N 41°18' E 002°10'5 5.2
2017-Mar-15 22:33N 41°14' E 002°14'1 0.8
2017-Mar-15 21:33N 41°14' E 002°15'1 0.6
2017-Mar-15 20:33N 41°14' E 002°16'0 0.4
2017-Mar-15 19:33N 41°14' E 002°16'0 0.3
2017-Mar-15 18:33N 41°14' E 002°16'1 0.9
2017-Mar-15 17:33N 41°13' E 002°17'1 0.9
2017-Mar-15 16:13N 41°13' E 002°19'1 0.9
2017-Mar-15 15:32N 41°13' E 002°19'29 8.7
2017-Mar-15 12:14N 41°28' E 002°52'13214.7
2017-Mar-15 03:16N 42°13' E 005°39'1114.3
2017-Mar-15 02:31N 42°17' E 005°52'1914.2
2017-Mar-15 01:12N 42°24' E 006°16'1014.6
2017-Mar-15 00:31N 42°28' E 006°28'2014.9
2017-Mar-14 23:12N 42°35' E 006°53'1314.6
2017-Mar-14 22:19N 42°39' E 007°10'1114.5
2017-Mar-14 21:33N 42°43' E 007°24'1414.2
2017-Mar-14 20:34N 42°48' E 007°42'1414.3
2017-Mar-14 19:33N 42°53' E 008°00'1414.5
2017-Mar-14 18:33N 42°58' E 008°19'1514.6
2017-Mar-14 17:33N 43°03' E 008°38'1514.6
2017-Mar-14 16:33N 43°08' E 008°56'1514.7
2017-Mar-14 15:33N 43°13' E 009°15'1514.6
2017-Mar-14 14:33N 43°16' E 009°35'1515.0
2017-Mar-14 13:33N 43°19' E 009°55'1514.8
2017-Mar-14 12:33N 43°29' E 010°10'8 8.2
2017-Mar-14 11:33N 43°34' E 010°18'1 0.7
2017-Mar-14 10:30N 43°35' E 010°19'0 0.0
2017-Mar-14 09:33N 43°35' E 010°19'0 0.0
2017-Mar-14 08:33N 43°35' E 010°19'0 0.0
2017-Mar-14 07:33N 43°35' E 010°19'0 0.4
2017-Mar-14 06:34N 43°34' E 010°19'8 8.2
2017-Mar-14 05:33N 43°28' E 010°11'5 5.1
2017-Mar-14 04:34N 43°25' E 010°05'1 1.3
2017-Mar-14 03:34N 43°24' E 010°06'1 1.4
2017-Mar-14 02:34N 43°23' E 010°06'2 2.2
2017-Mar-14 01:34N 43°21' E 010°06'2 1.9
2017-Mar-14 00:34N 43°19' E 010°07'2 1.7
2017-Mar-13 23:33N 43°17' E 010°07'1 0.9
2017-Mar-13 22:34N 43°16' E 010°07'1 0.5
2017-Mar-13 21:34N 43°16' E 010°08'0 0.4
2017-Mar-13 20:33N 43°16' E 010°08'1 0.8
2017-Mar-13 19:34N 43°15' E 010°09'1 1.3
2017-Mar-13 18:34N 43°15' E 010°11'2 1.6
2017-Mar-13 17:33N 43°16' E 010°13'1 1.4
2017-Mar-13 16:34N 43°17' E 010°15'1 1.2
2017-Mar-13 15:34N 43°18' E 010°15'1 0.7
2017-Mar-13 14:34N 43°18' E 010°15'0 0.4
2017-Mar-13 13:34N 43°19' E 010°14'1 1.4
2017-Mar-13 12:34N 43°18' E 010°12'9 9.3
2017-Mar-13 11:34N 43°25' E 010°03'5 4.6
2017-Mar-13 10:34N 43°29' E 010°01'2 2.5
2017-Mar-13 09:34N 43°27' E 010°02'2 2.2
2017-Mar-13 08:34N 43°25' E 010°04'2 1.6
2017-Mar-13 07:34N 43°24' E 010°05'2 1.5
2017-Mar-13 06:33N 43°23' E 010°06'1 1.0
2017-Mar-13 05:34N 43°22' E 010°08'2 1.6
2017-Mar-13 04:34N 43°21' E 010°07'1414.0
2017-Mar-13 03:33N 43°07' E 010°03'  
Track history (hours):
 
Tides and Currents Weather Stations Pressure Air Temp Water Temp Dewpoint Dewpoint Depression Visibility Wind Speed Wind Dir Waves Ship Positions

Swift Ace

Last reported at 2017-Mar-23 01:32 UTC. Time now 2017-Mar-23 02:05 UTC.
Position N 51°19' E 003°13'.

Length 200 m; draft 8.6 m.

Type: Cargo ship. MMSI: 310968322.

Date/timePositionNaut miles runAvg speedWind from/ knotsBaromVisibWave heightAir tempDewpointWater temp
2017-Mar-23 01:32N 51°19' E 003°13'0 0.0
2017-Mar-23 00:32N 51°19' E 003°13'1 0.6
2017-Mar-22 23:33N 51°20' E 003°13'1 0.6
2017-Mar-22 22:33N 51°20' E 003°13'6 6.0
2017-Mar-22 21:34N 51°25' E 003°20'1111.2
2017-Mar-22 20:33N 51°26' E 003°37'1111.1
2017-Mar-22 19:33N 51°21' E 003°53'8 8.0
2017-Mar-22 18:32N 51°22' E 004°06'8 7.7
2017-Mar-22 17:33N 51°18' E 004°17'2 2.5
2017-Mar-22 16:33N 51°16' E 004°17'2 1.5
2017-Mar-22 15:34N 51°16' E 004°14'0 0.1
2017-Mar-22 14:33N 51°16' E 004°14'0 0.0
2017-Mar-22 13:33N 51°16' E 004°14'0 0.0
2017-Mar-22 12:33N 51°16' E 004°14'0 0.0
2017-Mar-22 11:33N 51°16' E 004°14'0 0.0
2017-Mar-22 10:33N 51°16' E 004°14'0 0.0
2017-Mar-22 09:33N 51°16' E 004°14'0 0.0
2017-Mar-22 08:33N 51°16' E 004°14'0 0.0
2017-Mar-22 07:33N 51°16' E 004°14'0 0.0
2017-Mar-22 06:33N 51°16' E 004°14'0 0.0
2017-Mar-22 05:33N 51°16' E 004°14'0 0.0
2017-Mar-22 04:33N 51°16' E 004°14'0 0.0
2017-Mar-22 03:33N 51°16' E 004°14'1 1.0
2017-Mar-22 02:34N 51°17' E 004°15'1 1.1
2017-Mar-22 01:33N 51°18' E 004°16'6 6.5
2017-Mar-22 00:33N 51°23' E 004°09'8 7.9
2017-Mar-21 23:33N 51°23' E 003°57'9 9.0
2017-Mar-21 22:33N 51°24' E 003°43'9 9.0
2017-Mar-21 21:34N 51°25' E 003°28'1514.8
2017-Mar-21 20:33N 51°24' E 003°04'1413.6
2017-Mar-21 19:33N 51°22' E 002°43'1010.2
2017-Mar-21 18:34N 51°21' E 002°27'1111.4
2017-Mar-21 17:34N 51°16' E 002°11'10 9.6
2017-Mar-21 16:34N 51°11' E 001°57'1312.8
2017-Mar-21 15:33N 51°04' E 001°41'1312.8
2017-Mar-21 14:33N 50°53' E 001°29'3711.9
2017-Mar-21 11:26N 50°27' E 000°47'1313.3
2017-Mar-21 10:28N 50°24' E 000°27'1213.3
2017-Mar-21 09:34N 50°21' E 000°09'1313.1
2017-Mar-21 08:33N 50°19' W 000°11'2912.5
2017-Mar-21 06:12N 50°22' W 000°57'812.2
2017-Mar-21 05:33N 50°24' W 001°09'1313.1
2017-Mar-21 04:33N 50°25' W 001°29'1414.0
2017-Mar-21 03:33N 50°25' W 001°51'1814.8
2017-Mar-21 02:20N 50°25' W 002°20'1215.2
2017-Mar-21 01:34N 50°25' W 002°38'1514.8
2017-Mar-21 00:33N 50°25' W 003°01'1414.3
2017-Mar-20 23:33N 50°24' W 003°24'1010.0
2017-Mar-20 22:33N 50°15' W 003°29'1514.6
2017-Mar-20 21:33N 50°00' W 003°32'6913.3
2017-Mar-20 16:24N 49°09' W 004°43'1415.6
2017-Mar-20 15:31N 49°02' W 005°01'1616.3
2017-Mar-20 14:34N 48°53' W 005°21'1615.9
2017-Mar-20 13:34N 48°42' W 005°38'58116.6
2017-Mar-19 02:32N 39°30' W 009°51'1616.2
2017-Mar-19 01:33N 39°14' W 009°51'1616.2
2017-Mar-19 00:33N 38°58' W 009°50'1616.2
2017-Mar-18 23:34N 38°42' W 009°50'1615.9
2017-Mar-18 22:34N 38°26' W 009°47'1616.3
2017-Mar-18 21:34N 38°10' W 009°43'1616.3
2017-Mar-18 20:34N 37°54' W 009°38'1616.1
2017-Mar-18 19:34N 37°39' W 009°33'1615.9
2017-Mar-18 18:34N 37°23' W 009°28'1616.1
2017-Mar-18 17:34N 37°08' W 009°24'1616.3
2017-Mar-18 16:33N 36°52' W 009°17'1716.5
2017-Mar-18 15:33N 36°43' W 008°60'1717.3
2017-Mar-18 14:34N 36°37' W 008°40'1817.7
2017-Mar-18 13:33N 36°31' W 008°19'1818.0
2017-Mar-18 12:33N 36°26' W 007°57'9217.7
2017-Mar-18 07:20N 35°58' W 006°08'1518.2
2017-Mar-18 06:32N 35°57' W 005°50'1717.3
2017-Mar-18 05:34N 35°59' W 005°30'1717.2
2017-Mar-18 04:34N 36°03' W 005°09'14217.7
2017-Mar-17 20:32N 36°26' W 002°16'7317.8
2017-Mar-17 16:26N 37°13' W 001°06'1617.7
2017-Mar-17 15:33N 37°23' W 000°51'1818.0
2017-Mar-17 14:33N 37°35' W 000°33'1817.7
2017-Mar-17 13:31N 37°50' W 000°20'9117.6
2017-Mar-17 08:22N 39°07' E 000°40'3918.7
2017-Mar-17 06:17N 39°42' E 001°03'1318.3
2017-Mar-17 05:33N 39°53' E 001°12'1818.1
2017-Mar-17 04:33N 40°09' E 001°23'1818.0
2017-Mar-17 03:34N 40°25' E 001°34'1817.9
2017-Mar-17 02:34N 40°41' E 001°45'1817.9
2017-Mar-17 01:33N 40°56' E 001°57'1817.8
2017-Mar-17 00:34N 41°12' E 002°08'8 8.1
2017-Mar-16 23:33N 41°20' E 002°09'0 0.1
2017-Mar-16 22:31N 41°20' E 002°09'0 0.0
2017-Mar-16 21:25N 41°20' E 002°09'0 0.0
2017-Mar-16 20:13N 41°20' E 002°09'0 0.0
2017-Mar-16 19:31N 41°20' E 002°09'0 0.0
2017-Mar-16 18:25N 41°20' E 002°09'0 0.0
2017-Mar-16 17:31N 41°20' E 002°09'0 0.0
2017-Mar-16 14:22N 41°20' E 002°09'0 0.0
2017-Mar-16 13:28N 41°20' E 002°09'0 0.0
2017-Mar-16 12:22N 41°20' E 002°09'0 0.0
2017-Mar-16 11:25N 41°20' E 002°09'0 0.0
2017-Mar-16 10:10N 41°20' E 002°09'0 0.0
2017-Mar-16 08:22N 41°20' E 002°09'0 0.0
2017-Mar-16 07:10N 41°20' E 002°09'0 0.0
2017-Mar-16 04:04N 41°20' E 002°09'0 0.0
2017-Mar-16 03:16N 41°20' E 002°09'0 0.0
2017-Mar-16 02:28N 41°20' E 002°09'0 0.0
2017-Mar-16 01:28N 41°20' E 002°09'0 0.0
2017-Mar-16 00:25N 41°20' E 002°09'2 2.4
2017-Mar-15 23:33N 41°18' E 002°10'5 5.2
2017-Mar-15 22:33N 41°14' E 002°14'1 0.8
2017-Mar-15 21:33N 41°14' E 002°15'1 0.6
2017-Mar-15 20:33N 41°14' E 002°16'0 0.4
2017-Mar-15 19:33N 41°14' E 002°16'0 0.3
2017-Mar-15 18:33N 41°14' E 002°16'1 0.9
2017-Mar-15 17:33N 41°13' E 002°17'1 0.9
2017-Mar-15 16:13N 41°13' E 002°19'1 0.9
2017-Mar-15 15:32N 41°13' E 002°19'29 8.7
2017-Mar-15 12:14N 41°28' E 002°52'13214.7
2017-Mar-15 03:16N 42°13' E 005°39'1114.3
2017-Mar-15 02:31N 42°17' E 005°52'1914.2
2017-Mar-15 01:12N 42°24' E 006°16'1014.6
2017-Mar-15 00:31N 42°28' E 006°28'2014.9
2017-Mar-14 23:12N 42°35' E 006°53'1314.6
2017-Mar-14 22:19N 42°39' E 007°10'1114.5
2017-Mar-14 21:33N 42°43' E 007°24'1414.2
2017-Mar-14 20:34N 42°48' E 007°42'1414.3
2017-Mar-14 19:33N 42°53' E 008°00'1414.5
2017-Mar-14 18:33N 42°58' E 008°19'1514.6
2017-Mar-14 17:33N 43°03' E 008°38'1514.6
2017-Mar-14 16:33N 43°08' E 008°56'1514.7
2017-Mar-14 15:33N 43°13' E 009°15'1514.6
2017-Mar-14 14:33N 43°16' E 009°35'1515.0
2017-Mar-14 13:33N 43°19' E 009°55'1514.8
2017-Mar-14 12:33N 43°29' E 010°10'8 8.2
2017-Mar-14 11:33N 43°34' E 010°18'1 0.7
2017-Mar-14 10:30N 43°35' E 010°19'0 0.0
2017-Mar-14 09:33N 43°35' E 010°19'0 0.0
2017-Mar-14 08:33N 43°35' E 010°19'0 0.0
2017-Mar-14 07:33N 43°35' E 010°19'0 0.4
2017-Mar-14 06:34N 43°34' E 010°19'8 8.2
2017-Mar-14 05:33N 43°28' E 010°11'5 5.1
2017-Mar-14 04:34N 43°25' E 010°05'1 1.3
2017-Mar-14 03:34N 43°24' E 010°06'1 1.4
2017-Mar-14 02:34N 43°23' E 010°06'2 2.2
2017-Mar-14 01:34N 43°21' E 010°06'2 1.9
2017-Mar-14 00:34N 43°19' E 010°07'2 1.7
2017-Mar-13 23:33N 43°17' E 010°07'1 0.9
2017-Mar-13 22:34N 43°16' E 010°07'1 0.5
2017-Mar-13 21:34N 43°16' E 010°08'0 0.4
2017-Mar-13 20:33N 43°16' E 010°08'1 0.8
2017-Mar-13 19:34N 43°15' E 010°09'1 1.3
2017-Mar-13 18:34N 43°15' E 010°11'2 1.6
2017-Mar-13 17:33N 43°16' E 010°13'1 1.4
2017-Mar-13 16:34N 43°17' E 010°15'1 1.2
2017-Mar-13 15:34N 43°18' E 010°15'1 0.7
2017-Mar-13 14:34N 43°18' E 010°15'0 0.4
2017-Mar-13 13:34N 43°19' E 010°14'1 1.4
2017-Mar-13 12:34N 43°18' E 010°12'9 9.3
2017-Mar-13 11:34N 43°25' E 010°03'5 4.6
2017-Mar-13 10:34N 43°29' E 010°01'2 2.5
2017-Mar-13 09:34N 43°27' E 010°02'2 2.2
2017-Mar-13 08:34N 43°25' E 010°04'2 1.6
2017-Mar-13 07:34N 43°24' E 010°05'2 1.5
2017-Mar-13 06:33N 43°23' E 010°06'1 1.0
2017-Mar-13 05:34N 43°22' E 010°08'2 1.6
2017-Mar-13 04:34N 43°21' E 010°07'1414.0
2017-Mar-13 03:33N 43°07' E 010°03'  

Dump ship's entire track history